createdAt,value
2023-03-29T00:01:36.135Z,9.27
2023-03-29T00:04:24.830Z,9.87
2023-03-29T00:07:15.428Z,10.07
2023-03-29T00:09:59.701Z,9.97
2023-03-29T00:12:47.310Z,9.83
2023-03-29T00:15:34.453Z,9.33
2023-03-29T00:18:27.536Z,9.80
2023-03-29T00:21:15.431Z,9.53
2023-03-29T00:24:03.920Z,9.20
2023-03-29T00:26:52.445Z,9.37
2023-03-29T00:29:38.509Z,10.43
2023-03-29T00:32:26.228Z,9.83
2023-03-29T00:35:15.013Z,10.57
2023-03-29T00:38:00.824Z,10.73
2023-03-29T00:40:51.158Z,11.63
2023-03-29T00:43:58.299Z,10.03
2023-03-29T00:46:41.887Z,9.87
2023-03-29T00:49:27.893Z,9.73
2023-03-29T00:52:17.426Z,9.40
2023-03-29T00:55:11.951Z,10.00
2023-03-29T00:58:01.686Z,9.93
2023-03-29T01:00:57.550Z,10.10
2023-03-29T01:03:48.786Z,9.77
2023-03-29T01:06:40.435Z,9.93
2023-03-29T01:09:32.429Z,10.10
2023-03-29T01:12:28.325Z,10.73
2023-03-29T01:15:22.596Z,10.10
2023-03-29T01:18:09.974Z,10.77
2023-03-29T01:21:18.121Z,9.73
2023-03-29T01:24:35.331Z,10.37
2023-03-29T01:27:28.722Z,9.90
2023-03-29T01:30:23.946Z,10.90
2023-03-29T01:33:16.336Z,10.43
2023-03-29T01:36:09.179Z,10.10
2023-03-29T01:38:59.866Z,10.10
2023-03-29T01:41:54.117Z,10.50
2023-03-29T01:44:50.527Z,9.97
2023-03-29T01:47:48.329Z,10.67
2023-03-29T01:50:41.236Z,10.20
2023-03-29T01:53:33.121Z,10.27
2023-03-29T01:56:23.833Z,10.63
2023-03-29T01:59:13.721Z,10.70
2023-03-29T02:02:04.449Z,10.47
2023-03-29T02:04:56.691Z,9.93
2023-03-29T02:07:47.394Z,11.00
2023-03-29T02:10:35.609Z,9.43
2023-03-29T02:13:23.141Z,10.27
2023-03-29T02:16:12.830Z,9.60
2023-03-29T02:19:01.784Z,10.87
2023-03-29T02:21:55.640Z,10.13
2023-03-29T02:24:46.334Z,10.50
2023-03-29T02:27:34.379Z,9.83
2023-03-29T02:30:24.357Z,9.67
2023-03-29T02:33:14.724Z,9.87
2023-03-29T02:36:07.329Z,10.53
2023-03-29T02:38:58.262Z,9.77
2023-03-29T02:41:46.932Z,9.67
2023-03-29T02:44:41.200Z,9.93
2023-03-29T02:47:35.866Z,10.43
2023-03-29T02:50:20.546Z,10.13
2023-03-29T02:53:11.781Z,9.33
2023-03-29T02:56:04.772Z,9.43
2023-03-29T02:58:53.637Z,9.90
2023-03-29T03:01:41.190Z,9.13
2023-03-29T03:04:27.046Z,9.70
2023-03-29T03:07:15.990Z,8.83
2023-03-29T03:10:06.028Z,10.57
2023-03-29T03:12:55.491Z,9.83
2023-03-29T03:15:44.631Z,10.73
2023-03-29T03:18:36.781Z,8.53
2023-03-29T03:21:30.835Z,9.93
2023-03-29T03:24:19.248Z,8.90
2023-03-29T03:27:07.133Z,9.63
2023-03-29T03:33:11.658Z,9.63
2023-03-29T03:36:03.007Z,9.70
2023-03-29T03:38:52.427Z,9.30
2023-03-29T03:41:43.091Z,9.10
2023-03-29T03:44:34.861Z,9.73
2023-03-29T03:47:21.233Z,9.77
2023-03-29T03:50:05.816Z,9.00
2023-03-29T03:53:02.195Z,9.97
2023-03-29T03:55:56.109Z,9.23
2023-03-29T03:58:42.523Z,10.17
2023-03-29T04:01:29.646Z,9.83
2023-03-29T04:04:17.468Z,9.50
2023-03-29T04:07:06.342Z,9.87
2023-03-29T04:09:54.450Z,9.80
2023-03-29T04:12:42.710Z,10.90
2023-03-29T04:15:30.147Z,9.90
2023-03-29T04:18:16.519Z,8.93
2023-03-29T04:21:05.879Z,10.00
2023-03-29T04:23:53.272Z,11.40
2023-03-29T04:26:38.874Z,9.73
2023-03-29T04:29:29.093Z,9.83
2023-03-29T04:32:16.570Z,9.90
2023-03-29T04:35:04.358Z,9.33
2023-03-29T04:37:55.295Z,10.80
2023-03-29T04:40:45.959Z,10.37
2023-03-29T04:43:32.121Z,10.23
2023-03-29T04:46:22.097Z,9.60
2023-03-29T04:49:07.941Z,9.57
2023-03-29T04:51:56.080Z,10.03
2023-03-29T04:54:47.281Z,10.10
2023-03-29T04:57:35.924Z,11.50
2023-03-29T05:00:28.091Z,10.40
2023-03-29T05:03:16.969Z,10.67
2023-03-29T05:06:08.858Z,10.43
2023-03-29T05:08:56.239Z,10.13
2023-03-29T05:11:46.512Z,10.00
2023-03-29T05:14:36.143Z,10.27
2023-03-29T05:17:24.730Z,9.93
2023-03-29T05:20:16.004Z,10.37
2023-03-29T05:23:08.009Z,9.83
2023-03-29T05:25:56.483Z,9.30
2023-03-29T05:28:46.278Z,9.93
2023-03-29T05:31:33.460Z,10.20
2023-03-29T05:34:20.645Z,8.90
2023-03-29T05:37:08.651Z,8.90
2023-03-29T05:40:06.021Z,9.40
2023-03-29T05:42:54.639Z,9.33
2023-03-29T05:45:47.778Z,9.33
2023-03-29T05:48:34.294Z,9.50
2023-03-29T05:51:26.851Z,9.87
2023-03-29T05:54:14.857Z,10.37
2023-03-29T05:57:01.783Z,10.57
2023-03-29T05:59:52.062Z,10.20
2023-03-29T06:02:43.345Z,9.77
2023-03-29T06:05:32.045Z,8.80
2023-03-29T06:08:20.425Z,10.83
2023-03-29T06:11:10.095Z,9.70
2023-03-29T06:13:59.727Z,10.43
2023-03-29T06:16:50.432Z,10.23
2023-03-29T06:19:40.614Z,9.03
2023-03-29T06:22:28.204Z,9.33
2023-03-29T06:25:17.082Z,8.97
2023-03-29T06:28:04.129Z,8.30
2023-03-29T06:30:56.724Z,7.80
2023-03-29T06:33:44.115Z,8.30
2023-03-29T06:36:33.035Z,8.47
2023-03-29T06:39:31.410Z,8.33
2023-03-29T06:42:21.623Z,9.73
2023-03-29T06:45:10.582Z,8.00
2023-03-29T06:47:58.101Z,9.33
2023-03-29T06:50:44.958Z,9.07
2023-03-29T06:53:34.775Z,8.20
2023-03-29T06:56:21.734Z,8.40
2023-03-29T06:59:10.857Z,8.57
2023-03-29T07:01:57.991Z,8.50
2023-03-29T07:04:45.258Z,8.80
2023-03-29T07:07:54.410Z,8.10
2023-03-29T07:10:46.346Z,7.70
2023-03-29T07:13:34.973Z,7.60
2023-03-29T07:16:21.256Z,6.97
2023-03-29T07:19:10.377Z,6.70
2023-03-29T07:21:59.023Z,6.77
2023-03-29T07:24:46.221Z,6.90
2023-03-29T07:27:35.498Z,7.07
2023-03-29T07:30:24.924Z,6.67
2023-03-29T07:33:12.890Z,6.50
2023-03-29T07:35:58.690Z,6.30
2023-03-29T07:38:45.383Z,5.90
2023-03-29T07:41:33.178Z,6.60
2023-03-29T07:44:23.671Z,6.50
2023-03-29T07:47:12.384Z,8.77
2023-03-29T07:49:57.528Z,8.53
2023-03-29T07:52:46.794Z,8.80
2023-03-29T07:55:33.845Z,6.70
2023-03-29T07:58:20.024Z,6.63
2023-03-29T08:01:14.183Z,7.13
2023-03-29T08:04:05.592Z,5.90
2023-03-29T08:06:51.708Z,5.97
2023-03-29T08:09:37.840Z,5.30
2023-03-29T08:12:25.046Z,4.97
2023-03-29T08:15:10.968Z,6.13
2023-03-29T08:17:56.966Z,5.83
2023-03-29T08:20:42.031Z,5.43
2023-03-29T08:23:26.668Z,5.50
2023-03-29T08:26:11.651Z,5.20
2023-03-29T08:28:56.264Z,5.93
2023-03-29T08:31:40.970Z,5.70
2023-03-29T08:34:27.634Z,5.80
2023-03-29T08:37:12.835Z,5.60
2023-03-29T08:39:57.320Z,5.80
2023-03-29T08:43:10.619Z,5.30
2023-03-29T08:46:06.405Z,5.47
2023-03-29T08:48:57.206Z,5.13
2023-03-29T08:51:47.869Z,5.43
2023-03-29T08:54:47.919Z,5.73
2023-03-29T08:57:36.398Z,5.80
2023-03-29T09:00:26.947Z,5.77
2023-03-29T09:03:19.172Z,5.73
2023-03-29T09:06:08.689Z,5.73
2023-03-29T09:08:55.411Z,5.07
2023-03-29T09:11:54.988Z,5.90
2023-03-29T09:14:59.681Z,4.93
2023-03-29T09:17:55.802Z,5.27
2023-03-29T09:20:49.925Z,5.43
2023-03-29T09:23:57.960Z,4.97
2023-03-29T09:26:48.991Z,5.20
2023-03-29T09:29:49.751Z,4.87
2023-03-29T09:32:41.662Z,5.33
2023-03-29T09:35:29.878Z,5.00
2023-03-29T09:38:16.499Z,5.23
2023-03-29T09:41:10.177Z,5.00
2023-03-29T09:43:56.943Z,5.70
2023-03-29T09:46:44.377Z,5.33
2023-03-29T09:49:32.705Z,5.30
2023-03-29T09:52:21.985Z,5.60
2023-03-29T09:55:09.751Z,5.20
2023-03-29T09:57:56.368Z,6.30
2023-03-29T10:00:41.519Z,5.00
2023-03-29T10:03:28.967Z,5.67
2023-03-29T10:06:16.920Z,4.93
2023-03-29T10:09:03.994Z,5.23
2023-03-29T10:11:53.653Z,5.13
2023-03-29T10:14:45.289Z,4.93
2023-03-29T10:17:34.739Z,4.77
2023-03-29T10:20:21.259Z,4.73
2023-03-29T10:23:10.266Z,4.77
2023-03-29T10:25:57.410Z,4.60
2023-03-29T10:28:42.553Z,5.20
2023-03-29T10:31:34.482Z,5.30
2023-03-29T10:34:21.175Z,4.40
2023-03-29T10:37:09.062Z,4.70
2023-03-29T10:39:56.117Z,4.77
2023-03-29T10:42:51.845Z,4.83
2023-03-29T10:45:38.735Z,4.60
2023-03-29T10:48:31.125Z,4.93
2023-03-29T10:51:17.548Z,5.00
2023-03-29T10:54:03.655Z,5.10
2023-03-29T10:56:56.182Z,5.53
2023-03-29T10:59:52.400Z,5.60
2023-03-29T11:03:11.599Z,5.03
2023-03-29T11:06:06.359Z,4.70
2023-03-29T11:08:59.563Z,4.97
2023-03-29T11:12:14.985Z,4.87
2023-03-29T11:15:16.020Z,4.87
2023-03-29T11:18:18.169Z,4.90
2023-03-29T11:21:13.083Z,5.30
2023-03-29T11:24:20.385Z,5.30
2023-03-29T11:27:19.672Z,5.73
2023-03-29T11:30:11.546Z,5.67
2023-03-29T11:33:04.039Z,6.47
2023-03-29T11:35:56.892Z,6.60
2023-03-29T11:38:51.360Z,7.00
2023-03-29T11:41:40.951Z,6.77
2023-03-29T11:44:30.855Z,6.67
2023-03-29T11:47:20.268Z,6.50
2023-03-29T11:50:11.028Z,6.83
2023-03-29T11:52:59.504Z,7.17
2023-03-29T11:55:47.835Z,7.53
2023-03-29T11:58:39.094Z,6.97
2023-03-29T12:01:30.655Z,7.47
2023-03-29T12:04:23.835Z,7.50
2023-03-29T12:07:17.594Z,6.93
2023-03-29T12:10:08.969Z,7.67
2023-03-29T12:13:02.218Z,7.80
2023-03-29T12:15:52.719Z,7.23
2023-03-29T12:18:42.826Z,6.80
2023-03-29T12:21:30.722Z,7.47
2023-03-29T12:24:27.163Z,7.27
2023-03-29T12:27:29.778Z,6.53
2023-03-29T12:30:47.128Z,6.93
2023-03-29T12:33:58.227Z,7.57
2023-03-29T12:36:59.350Z,6.80
2023-03-29T12:39:44.606Z,6.17
2023-03-29T12:42:30.102Z,6.73
2023-03-29T12:45:20.845Z,6.57
2023-03-29T12:48:08.440Z,6.93
2023-03-29T12:50:55.111Z,7.50
2023-03-29T12:53:43.310Z,8.40
2023-03-29T12:56:42.118Z,7.97
2023-03-29T12:59:39.638Z,7.57
2023-03-29T13:02:39.460Z,8.30
2023-03-29T13:05:37.232Z,7.47
2023-03-29T13:08:30.111Z,8.33
2023-03-29T13:11:28.445Z,6.87
2023-03-29T13:14:19.715Z,7.03
2023-03-29T13:17:17.763Z,7.07
2023-03-29T13:20:22.380Z,8.20
2023-03-29T13:23:25.734Z,6.83
2023-03-29T13:26:30.359Z,6.97
2023-03-29T13:29:40.479Z,7.07
2023-03-29T13:32:42.066Z,7.27
2023-03-29T13:35:38.648Z,6.87
2023-03-29T13:38:28.973Z,7.17
2023-03-29T13:41:29.754Z,7.00
2023-03-29T13:44:28.116Z,6.87
2023-03-29T13:47:30.859Z,6.70
2023-03-29T13:50:20.709Z,7.30
2023-03-29T13:53:13.195Z,7.17
2023-03-29T13:56:01.370Z,7.40
2023-03-29T13:58:50.398Z,8.33
2023-03-29T14:01:41.283Z,7.20
2023-03-29T14:04:29.368Z,6.90
2023-03-29T14:07:17.506Z,7.77
2023-03-29T14:10:04.362Z,7.77
2023-03-29T14:12:51.863Z,7.80
2023-03-29T14:15:46.351Z,7.40
2023-03-29T14:18:35.983Z,7.40
2023-03-29T14:21:22.511Z,7.67
2023-03-29T14:24:07.393Z,8.30
2023-03-29T14:26:53.374Z,6.63
2023-03-29T14:29:41.856Z,8.17
2023-03-29T14:32:31.718Z,8.87
2023-03-29T14:35:18.225Z,8.80
2023-03-29T14:38:04.408Z,7.43
2023-03-29T14:40:50.912Z,7.50
2023-03-29T14:43:36.237Z,9.07
2023-03-29T14:46:24.723Z,9.50
2023-03-29T14:49:09.839Z,11.07
2023-03-29T14:51:56.261Z,8.50
2023-03-29T14:54:44.333Z,7.67
2023-03-29T14:57:35.854Z,8.67
2023-03-29T15:00:35.548Z,8.03
2023-03-29T15:03:27.339Z,7.13
2023-03-29T15:06:15.335Z,8.00
2023-03-29T15:09:05.790Z,7.67
2023-03-29T15:11:56.030Z,7.97
2023-03-29T15:14:41.325Z,8.27
2023-03-29T15:17:47.731Z,8.17
2023-03-29T15:20:41.624Z,7.67
2023-03-29T15:23:27.046Z,7.27
2023-03-29T15:26:15.347Z,7.33
2023-03-29T15:29:09.977Z,9.43
2023-03-29T15:31:59.748Z,7.80
2023-03-29T15:34:46.569Z,7.53
2023-03-29T15:37:32.892Z,7.80
2023-03-29T15:40:18.937Z,7.90
2023-03-29T15:43:04.157Z,7.80
2023-03-29T15:45:48.722Z,8.07
2023-03-29T15:48:34.134Z,7.30
2023-03-29T15:51:20.469Z,8.10
2023-03-29T15:54:08.216Z,7.70
2023-03-29T15:56:55.581Z,7.97
2023-03-29T15:59:40.707Z,7.53
2023-03-29T16:02:27.458Z,8.30
2023-03-29T16:05:14.611Z,9.10
2023-03-29T16:07:59.496Z,8.27
2023-03-29T16:10:47.721Z,7.73
2023-03-29T16:13:32.820Z,7.63
2023-03-29T16:16:18.191Z,7.83
2023-03-29T16:19:03.872Z,8.27
2023-03-29T16:21:49.620Z,8.27
2023-03-29T16:24:35.523Z,8.20
2023-03-29T16:27:21.543Z,7.07
2023-03-29T16:30:07.892Z,8.30
2023-03-29T16:32:53.243Z,7.87
2023-03-29T16:35:40.502Z,8.80
2023-03-29T16:38:26.100Z,8.33
2023-03-29T16:41:14.237Z,7.50
2023-03-29T16:44:01.419Z,8.00
2023-03-29T16:46:49.494Z,8.80
2023-03-29T16:49:35.324Z,8.63
2023-03-29T16:52:20.454Z,9.07
2023-03-29T16:55:06.270Z,8.80
2023-03-29T16:57:51.556Z,7.57
2023-03-29T17:00:39.100Z,8.70
2023-03-29T17:03:23.644Z,10.13
2023-03-29T17:06:09.476Z,9.73
2023-03-29T17:08:53.977Z,9.03
2023-03-29T17:11:38.140Z,8.67
2023-03-29T17:14:23.107Z,9.37
2023-03-29T17:17:13.546Z,8.73
2023-03-29T17:19:58.892Z,9.17
2023-03-29T17:22:44.500Z,8.67
2023-03-29T17:25:30.271Z,8.83
2023-03-29T17:28:16.826Z,8.20
2023-03-29T17:31:01.607Z,8.07
2023-03-29T17:33:51.310Z,8.27
2023-03-29T17:36:38.176Z,8.03
2023-03-29T17:39:21.934Z,7.07
2023-03-29T17:42:07.801Z,7.53
2023-03-29T17:44:55.238Z,7.80
2023-03-29T17:47:42.634Z,7.93
2023-03-29T17:50:30.236Z,7.07
2023-03-29T17:53:18.809Z,7.93
2023-03-29T17:56:02.882Z,8.03
2023-03-29T17:58:46.967Z,8.97
2023-03-29T18:01:31.731Z,7.90
2023-03-29T18:04:16.219Z,7.73
2023-03-29T18:07:04.712Z,7.10
2023-03-29T18:09:50.305Z,8.00
2023-03-29T18:12:33.730Z,8.10
2023-03-29T18:18:07.324Z,7.40
2023-03-29T18:20:52.030Z,7.63
2023-03-29T18:23:40.264Z,7.20
2023-03-29T18:26:24.369Z,8.37
2023-03-29T18:29:09.756Z,8.13
2023-03-29T18:31:54.909Z,8.00
2023-03-29T18:34:39.448Z,7.70
2023-03-29T18:37:23.228Z,8.33
2023-03-29T18:40:10.242Z,7.73
2023-03-29T18:42:58.146Z,8.53
2023-03-29T18:45:47.262Z,8.10
2023-03-29T18:48:34.269Z,8.20
2023-03-29T18:51:19.236Z,8.23
2023-03-29T18:54:06.853Z,7.87
2023-03-29T18:56:52.919Z,7.80
2023-03-29T18:59:38.535Z,8.63
2023-03-29T19:02:26.522Z,8.67
2023-03-29T19:05:12.287Z,8.40
2023-03-29T19:07:58.201Z,7.77
2023-03-29T19:10:43.294Z,8.37
2023-03-29T19:13:30.216Z,8.83
2023-03-29T19:16:15.128Z,8.57
2023-03-29T19:19:00.952Z,8.30
2023-03-29T19:21:47.041Z,7.97
2023-03-29T19:24:37.092Z,7.93
2023-03-29T19:27:25.874Z,9.07
2023-03-29T19:30:14.929Z,8.87
2023-03-29T19:33:02.865Z,8.90
2023-03-29T19:35:50.168Z,8.47
2023-03-29T19:38:35.194Z,8.03
2023-03-29T19:41:20.869Z,9.43
2023-03-29T19:44:07.023Z,9.37
2023-03-29T19:46:55.501Z,9.80
2023-03-29T19:49:41.254Z,9.47
2023-03-29T19:52:28.152Z,8.27
2023-03-29T19:55:13.930Z,8.93
2023-03-29T19:57:59.514Z,9.43
2023-03-29T20:00:45.313Z,9.83
2023-03-29T20:03:36.247Z,9.30
2023-03-29T20:06:22.778Z,8.47
2023-03-29T20:09:08.399Z,9.10
2023-03-29T20:11:54.584Z,9.80
2023-03-29T20:14:41.398Z,9.47
2023-03-29T20:17:26.671Z,9.33
2023-03-29T20:20:16.037Z,9.23
2023-03-29T20:23:04.958Z,8.57
2023-03-29T20:25:51.223Z,8.93
2023-03-29T20:28:37.953Z,8.87
2023-03-29T20:31:23.278Z,9.27
2023-03-29T20:34:08.612Z,8.40
2023-03-29T20:36:55.772Z,7.63
2023-03-29T20:39:42.787Z,7.30
2023-03-29T20:42:31.357Z,9.37
2023-03-29T20:45:21.225Z,8.60
2023-03-29T20:48:06.597Z,8.40
2023-03-29T20:50:51.934Z,8.73
2023-03-29T20:53:43.330Z,8.00
2023-03-29T20:56:29.098Z,8.33
2023-03-29T20:59:13.892Z,9.00
2023-03-29T21:02:03.806Z,7.73
2023-03-29T21:04:53.751Z,7.90
2023-03-29T21:07:39.420Z,9.40
2023-03-29T21:10:27.498Z,7.40
2023-03-29T21:13:11.894Z,7.37
2023-03-29T21:16:04.337Z,8.10
2023-03-29T21:18:49.686Z,7.70
2023-03-29T21:21:35.489Z,8.37
2023-03-29T21:24:21.549Z,7.67
2023-03-29T21:27:09.744Z,7.90
2023-03-29T21:29:56.084Z,8.13
2023-03-29T21:32:41.940Z,7.27
2023-03-29T21:35:27.253Z,8.07
2023-03-29T21:38:16.372Z,8.10
2023-03-29T21:41:04.680Z,7.53
2023-03-29T21:43:52.797Z,8.37
2023-03-29T21:46:36.841Z,7.43
2023-03-29T21:49:22.018Z,7.47
2023-03-29T21:52:07.622Z,7.67
2023-03-29T21:54:53.560Z,7.70
2023-03-29T21:57:39.087Z,7.47
2023-03-29T22:00:27.299Z,7.97
2023-03-29T22:03:13.893Z,7.97
2023-03-29T22:06:00.822Z,8.57
2023-03-29T22:08:47.842Z,7.83
2023-03-29T22:11:35.728Z,7.57
2023-03-29T22:14:22.514Z,7.20
2023-03-29T22:17:11.973Z,8.93
2023-03-29T22:19:59.810Z,8.10
2023-03-29T22:22:50.342Z,8.00
2023-03-29T22:25:35.752Z,7.80
2023-03-29T22:28:23.366Z,6.63
2023-03-29T22:31:14.087Z,7.77
2023-03-29T22:34:03.549Z,7.70
2023-03-29T22:36:51.426Z,7.77
2023-03-29T22:39:38.310Z,8.13
2023-03-29T22:42:24.807Z,7.57
2023-03-29T22:45:15.191Z,6.80
2023-03-29T22:48:01.787Z,8.17
2023-03-29T22:50:51.635Z,8.40
2023-03-29T22:53:37.890Z,8.87
2023-03-29T22:56:25.267Z,7.73
2023-03-29T22:59:11.879Z,7.87
2023-03-29T23:01:57.390Z,8.53
2023-03-29T23:04:43.315Z,7.57
2023-03-29T23:07:31.894Z,8.17
2023-03-29T23:10:18.040Z,8.43
2023-03-29T23:13:09.193Z,8.20
2023-03-29T23:15:56.133Z,7.83
2023-03-29T23:18:43.109Z,9.10
2023-03-29T23:21:29.026Z,8.97
2023-03-29T23:24:19.030Z,9.40
2023-03-29T23:27:05.963Z,8.03
2023-03-29T23:29:51.497Z,8.00
2023-03-29T23:32:36.993Z,8.20
2023-03-29T23:35:23.330Z,8.17
2023-03-29T23:38:10.220Z,8.40
2023-03-29T23:40:59.543Z,8.10
2023-03-29T23:43:47.461Z,8.30
2023-03-29T23:46:35.160Z,7.27
2023-03-29T23:49:23.622Z,8.30
2023-03-29T23:52:09.366Z,7.83
2023-03-29T23:54:53.958Z,8.00
2023-03-29T23:57:40.911Z,7.30
